Time;durP1;ratioP1;P1;durP2;ratioP2;P2;SDS_P1;SDS_P2;PMS_P1;PMS_P2;Temp;Humidity;BMP_temperature;BMP_pressure;BME280_temperature;BME280_humidity;BME280_pressure;Samples;Min_cycle;Max_cycle;Signal;HPM_P1;HPM_P2
2023/11/09 00:01:37;;;;;;;14.13;5.50;;;;;;;8.21;68.33;99081.63;5133536;27;20083;-64
2023/11/09 00:04:03;;;;;;;9.43;5.15;;;;;;;8.21;68.16;99071.78;5124364;27;20049;-64
2023/11/09 00:06:29;;;;;;;13.75;5.45;;;;;;;8.18;68.25;99056.88;5110313;28;20040;-64
2023/11/09 00:08:55;;;;;;;11.93;5.55;;;;;;;8.26;67.95;99072.25;5112602;28;20046;-65
2023/11/09 00:11:21;;;;;;;9.20;5.28;;;;;;;8.19;67.95;99055.91;5131207;27;20034;-64
2023/11/09 00:13:47;;;;;;;10.82;4.97;;;;;;;8.30;68.13;99067.50;5130356;27;20035;-63
2023/11/09 00:16:13;;;;;;;9.30;5.38;;;;;;;8.30;68.36;99064.84;5133235;27;20446;-64
2023/11/09 00:18:39;;;;;;;11.23;5.53;;;;;;;8.28;67.90;99061.47;5131377;27;20062;-63
2023/11/09 00:21:05;;;;;;;9.70;4.95;;;;;;;8.29;68.08;99057.81;5092500;28;20036;-64
2023/11/09 00:23:37;;;;;;;8.48;4.88;;;;;;;8.35;68.18;99061.81;5092436;28;20093;-63
2023/11/09 00:26:03;;;;;;;11.32;5.57;;;;;;;8.32;67.64;99055.75;5092307;28;20325;-64
2023/11/09 00:28:29;;;;;;;9.85;5.22;;;;;;;8.15;67.86;99029.66;5091981;28;20549;-65
2023/11/09 00:30:55;;;;;;;11.65;5.53;;;;;;;8.29;67.94;99049.81;5101774;28;20114;-64
2023/11/09 00:33:20;;;;;;;9.73;5.93;;;;;;;8.38;67.49;99058.88;5112910;28;20098;-63
2023/11/09 00:35:47;;;;;;;9.38;5.70;;;;;;;8.29;67.88;99039.16;5112410;28;20031;-64
2023/11/09 00:38:15;;;;;;;13.85;4.97;;;;;;;8.32;67.46;99039.75;5112512;28;20407;-64
2023/11/09 00:40:41;;;;;;;10.05;5.53;;;;;;;8.22;67.58;99022.81;5112722;28;20110;-64
2023/11/09 00:43:07;;;;;;;8.95;5.15;;;;;;;8.35;67.44;99046.63;5111570;28;20043;-65
2023/11/09 00:45:34;;;;;;;10.15;5.18;;;;;;;8.42;67.42;99060.31;5113134;28;20027;-64
2023/11/09 00:48:03;;;;;;;10.25;5.65;;;;;;;8.46;67.45;99056.41;5113485;28;20362;-65
2023/11/09 00:50:29;;;;;;;10.88;6.80;;;;;;;8.24;67.58;99012.88;5112708;28;20027;-64
2023/11/09 00:52:54;;;;;;;15.45;7.30;;;;;;;8.46;67.57;99049.25;5113397;28;20068;-64
2023/11/09 00:55:20;;;;;;;13.88;7.50;;;;;;;8.43;67.12;99049.50;5111085;28;20043;-65
2023/11/09 00:57:46;;;;;;;14.50;6.22;;;;;;;8.45;67.69;99052.91;5111406;28;20454;-65
2023/11/09 01:00:12;;;;;;;11.30;6.07;;;;;;;8.44;67.54;99056.53;5111071;28;20106;-64
2023/11/09 01:02:39;;;;;;;10.98;6.50;;;;;;;8.37;67.41;99044.69;5111945;28;20027;-64
2023/11/09 01:05:06;;;;;;;11.10;6.15;;;;;;;8.37;67.44;99047.34;5111747;28;20038;-63
2023/11/09 01:07:32;;;;;;;14.07;6.97;;;;;;;8.38;67.86;99045.53;5094233;28;20165;-63
2023/11/09 01:09:59;;;;;;;13.02;7.00;;;;;;;8.43;67.75;99056.66;5112079;28;20126;-66
2023/11/09 01:12:25;;;;;;;11.23;6.85;;;;;;;8.23;67.58;99032.50;5112701;28;20031;-64
2023/11/09 01:14:54;;;;;;;11.70;7.10;;;;;;;8.37;67.96;99050.00;5110366;28;20180;-63
2023/11/09 01:17:20;;;;;;;14.80;8.13;;;;;;;8.32;67.98;99041.56;5111760;28;20088;-64
2023/11/09 01:19:45;;;;;;;11.52;6.93;;;;;;;8.32;68.12;99046.88;5111870;28;20036;-63
2023/11/09 01:22:12;;;;;;;11.68;7.57;;;;;;;8.29;67.91;99045.31;5111462;28;20027;-62
2023/11/09 01:24:37;;;;;;;13.60;7.18;;;;;;;8.07;68.02;99003.63;5110529;28;20118;-63
2023/11/09 01:27:04;;;;;;;19.30;7.80;;;;;;;8.31;68.25;99053.19;5112313;28;20463;-63
2023/11/09 01:29:30;;;;;;;13.52;6.40;;;;;;;8.25;68.49;99038.56;5113455;28;20048;-65
2023/11/09 01:31:57;;;;;;;10.90;6.70;;;;;;;8.26;68.43;99047.41;5114543;27;20028;-65
2023/11/09 01:34:24;;;;;;;14.50;6.45;;;;;;;8.21;68.34;99041.63;5126188;27;20024;-64
2023/11/09 01:36:51;;;;;;;11.55;6.07;;;;;;;8.25;68.41;99040.38;5135796;27;20827;-63
2023/11/09 01:39:17;;;;;;;12.13;6.18;;;;;;;8.17;68.00;99025.84;5135549;27;20039;-64
2023/11/09 01:41:45;;;;;;;11.02;5.80;;;;;;;8.23;68.24;99032.50;5136194;27;20511;-63
2023/11/09 01:44:11;;;;;;;8.50;5.25;;;;;;;8.20;68.22;99032.75;5136508;27;20035;-63
2023/11/09 01:46:40;;;;;;;8.57;5.50;;;;;;;8.22;68.64;99027.31;5136243;27;20037;-64
2023/11/09 01:49:05;;;;;;;11.65;5.72;;;;;;;8.22;68.49;99035.31;5136310;27;20050;-65
2023/11/09 01:51:32;;;;;;;8.45;5.78;;;;;;;8.21;68.03;99025.63;5120505;27;20031;-64
2023/11/09 01:53:59;;;;;;;13.13;6.60;;;;;;;8.21;68.44;99022.97;5115482;28;20459;-63
2023/11/09 01:56:25;;;;;;;12.45;5.47;;;;;;;8.21;68.05;99017.63;5114142;28;20066;-63
2023/11/09 01:58:52;;;;;;;10.20;5.47;;;;;;;8.17;68.33;99011.69;5117245;27;20820;-63
2023/11/09 02:01:19;;;;;;;11.55;6.35;;;;;;;8.12;68.37;99017.41;5116180;27;20039;-63
2023/11/09 02:03:45;;;;;;;11.50;6.05;;;;;;;8.11;68.56;99013.03;5131525;27;20480;-63
2023/11/09 02:06:12;;;;;;;13.02;6.07;;;;;;;8.07;68.73;99016.94;5135703;27;20062;-64
2023/11/09 02:08:39;;;;;;;8.43;6.07;;;;;;;8.03;68.96;99015.50;5135872;27;20035;-64
2023/11/09 02:11:05;;;;;;;11.57;6.10;;;;;;;7.94;69.02;99008.25;5135220;27;20114;-65
2023/11/09 02:13:34;;;;;;;14.32;6.45;;;;;;;8.00;68.92;99013.94;5135954;27;20023;-64
2023/11/09 02:16:05;;;;;;;10.40;6.10;;;;;;;7.99;68.86;99024.75;5136007;27;20115;-65
2023/11/09 02:18:32;;;;;;;12.30;6.38;;;;;;;7.99;69.07;99016.75;5131800;27;20365;-63
2023/11/09 02:20:59;;;;;;;8.98;5.80;;;;;;;7.98;68.85;99023.06;5115232;28;20028;-64
2023/11/09 02:23:30;;;;;;;10.73;6.53;;;;;;;7.96;68.88;99009.00;5114555;27;20446;-64
2023/11/09 02:25:57;;;;;;;10.65;6.00;;;;;;;7.95;68.85;99013.47;5115070;28;20100;-63
2023/11/09 02:28:22;;;;;;;13.95;6.20;;;;;;;7.99;69.04;99014.09;5115125;28;20062;-63
2023/11/09 02:30:49;;;;;;;13.05;6.10;;;;;;;8.00;69.12;99018.44;5115211;28;20028;-64
2023/11/09 02:33:15;;;;;;;14.10;6.13;;;;;;;7.96;69.11;99007.16;5115633;28;20031;-63
2023/11/09 02:35:41;;;;;;;12.23;5.85;;;;;;;7.77;68.94;98983.88;5115764;28;20053;-64
2023/11/09 02:38:08;;;;;;;11.43;6.15;;;;;;;7.88;69.02;99001.66;5115317;27;20145;-64
2023/11/09 02:40:35;;;;;;;10.65;5.82;;;;;;;7.88;69.22;99006.97;5113473;28;20023;-65
2023/11/09 02:43:00;;;;;;;11.82;6.72;;;;;;;7.86;68.95;99003.59;5096105;28;20024;-64
2023/11/09 02:45:26;;;;;;;11.45;5.93;;;;;;;7.72;69.44;98972.75;5113555;28;20466;-63
2023/11/09 02:47:52;;;;;;;15.35;6.38;;;;;;;7.89;69.44;99008.66;5120358;27;20391;-64
2023/11/09 02:50:18;;;;;;;13.38;6.47;;;;;;;7.84;69.61;99002.88;5133684;27;20035;-64
2023/11/09 02:52:43;;;;;;;10.73;6.28;;;;;;;7.88;69.51;99007.81;5126470;27;20343;-63
2023/11/09 02:55:09;;;;;;;17.13;6.50;;;;;;;7.84;69.48;99001.03;5113687;28;20034;-65
2023/11/09 02:57:34;;;;;;;12.93;6.78;;;;;;;7.77;69.42;98997.19;5114026;27;20362;-64
2023/11/09 03:00:05;;;;;;;15.73;6.47;;;;;;;7.82;69.41;99010.97;5113361;28;20036;-64
2023/11/09 03:02:31;;;;;;;9.75;6.50;;;;;;;7.81;69.61;99009.28;5113852;28;20461;-64
2023/11/09 03:04:57;;;;;;;19.33;6.90;;;;;;;7.58;69.78;98968.53;5079634;28;20059;-63
2023/11/09 03:07:23;;;;;;;15.10;6.88;;;;;;;7.80;69.79;99002.28;5113975;28;20027;-62
2023/11/09 03:09:49;;;;;;;12.60;6.43;;;;;;;7.83;69.59;99006.47;5114223;28;20032;-63
2023/11/09 03:12:15;;;;;;;10.10;6.28;;;;;;;7.89;69.73;99014.00;5115990;27;20038;-64
2023/11/09 03:14:40;;;;;;;11.13;6.50;;;;;;;7.74;69.44;98990.28;5134199;27;20042;-64
2023/11/09 03:17:08;;;;;;;12.52;6.65;;;;;;;7.93;69.37;99012.75;5132539;27;20030;-65
2023/11/09 03:19:35;;;;;;;13.10;6.20;;;;;;;7.89;69.41;98998.00;5134233;27;20129;-62
2023/11/09 03:22:02;;;;;;;9.63;6.20;;;;;;;7.89;69.42;98993.50;5133824;27;20019;-64
2023/11/09 03:24:29;;;;;;;13.25;6.03;;;;;;;7.99;69.44;99008.75;5134704;27;20092;-64
2023/11/09 03:26:58;;;;;;;20.48;6.03;;;;;;;8.04;69.13;99017.19;5133991;27;20150;-62
2023/11/09 03:29:24;;;;;;;12.80;5.90;;;;;;;8.02;69.28;99014.66;5133183;27;20046;-63
2023/11/09 03:31:50;;;;;;;11.38;5.97;;;;;;;8.03;68.90;99012.84;5132679;27;20027;-63
2023/11/09 03:34:16;;;;;;;15.20;5.72;;;;;;;7.99;69.20;99004.25;5124350;27;20031;-62
2023/11/09 03:36:41;;;;;;;11.05;5.82;;;;;;;7.95;68.85;98997.50;5132164;27;20492;-63
2023/11/09 03:39:07;;;;;;;15.63;5.97;;;;;;;7.80;69.16;98974.75;5134086;27;20031;-64
2023/11/09 03:41:33;;;;;;;10.75;5.65;;;;;;;7.96;69.19;99004.50;5134202;27;20042;-64
2023/11/09 03:43:59;;;;;;;15.13;6.35;;;;;;;7.87;69.20;98999.94;5133826;27;20074;-64
2023/11/09 03:46:24;;;;;;;13.02;6.07;;;;;;;7.91;69.41;99001.38;5132502;27;20442;-64
2023/11/09 03:48:50;;;;;;;9.23;5.32;;;;;;;7.90;69.30;99013.84;5116223;27;20054;-63
2023/11/09 03:51:15;;;;;;;14.82;6.80;;;;;;;7.84;69.54;99002.88;5113679;28;20024;-63
2023/11/09 03:53:42;;;;;;;21.48;5.90;;;;;;;7.81;69.44;98998.63;5112702;28;20023;-65
2023/11/09 03:56:07;;;;;;;14.10;6.47;;;;;;;7.55;69.63;98958.13;5075960;28;20092;-65
2023/11/09 03:58:34;;;;;;;14.02;5.75;;;;;;;7.83;69.78;99002.00;5093246;28;20036;-63
2023/11/09 04:01:00;;;;;;;11.30;6.00;;;;;;;7.85;69.56;99008.06;5107874;27;20039;-63
2023/11/09 04:03:25;;;;;;;23.23;10.93;;;;;;;7.78;69.44;98996.22;5112919;28;20028;-63
2023/11/09 04:05:51;;;;;;;31.20;19.63;;;;;;;7.80;69.75;99004.94;5113309;28;20027;-63
2023/11/09 04:08:18;;;;;;;24.75;15.55;;;;;;;7.82;69.85;99004.78;5112859;28;20042;-63
2023/11/09 04:10:44;;;;;;;23.77;11.23;;;;;;;7.78;70.06;99012.22;5112763;28;20053;-63
2023/11/09 04:13:09;;;;;;;19.55;8.55;;;;;;;7.78;70.02;99006.03;5113373;28;20365;-64
2023/11/09 04:15:36;;;;;;;18.55;8.18;;;;;;;7.73;69.86;99003.75;5114117;28;20036;-64
2023/11/09 04:18:02;;;;;;;21.77;7.63;;;;;;;7.75;70.17;99012.47;5112742;28;20373;-63
2023/11/09 04:20:28;;;;;;;16.08;6.63;;;;;;;7.75;70.16;99009.81;5112941;28;20115;-63
2023/11/09 04:22:53;;;;;;;15.85;6.55;;;;;;;7.70;70.31;98996.00;5111981;28;20111;-65
2023/11/09 04:25:22;;;;;;;15.05;6.65;;;;;;;7.68;70.22;99006.78;5116560;28;20337;-64
2023/11/09 04:27:49;;;;;;;16.42;6.85;;;;;;;7.70;70.23;99003.97;5133262;27;20057;-63
2023/11/09 04:30:16;;;;;;;13.93;6.68;;;;;;;7.72;70.36;99008.22;5131716;27;20470;-63
2023/11/09 04:32:42;;;;;;;12.68;6.43;;;;;;;7.67;70.32;98998.91;5133188;27;20079;-64
2023/11/09 04:35:08;;;;;;;16.58;6.55;;;;;;;7.70;70.13;98996.00;5123763;28;20062;-63
2023/11/09 04:37:38;;;;;;;15.25;7.05;;;;;;;7.70;70.21;98998.66;5113014;28;20027;-63
2023/11/09 04:40:14;;;;;;;14.07;6.18;;;;;;;7.77;69.88;99002.53;5113137;28;20028;-64
2023/11/09 04:42:39;;;;;;;16.60;6.57;;;;;;;7.79;69.99;99008.56;5112859;28;20030;-64
2023/11/09 04:45:11;;;;;;;17.23;6.80;;;;;;;7.73;70.25;99004.59;5113832;28;20020;-64
2023/11/09 04:47:41;;;;;;;16.38;6.35;;;;;;;7.78;70.01;99011.34;5113275;28;20046;-63
2023/11/09 04:50:22;;;;;;;16.23;6.88;;;;;;;7.85;69.98;99013.38;5116204;28;20024;-65
2023/11/09 04:52:57;;;;;;;13.73;6.30;;;;;;;7.86;69.96;99019.59;5115024;28;20121;-63
2023/11/09 04:55:42;;;;;;;16.48;7.30;;;;;;;7.88;69.76;99021.13;5120041;27;20370;-64
2023/11/09 05:09:07;;;;;;;19.83;7.63;;;;;;;8.11;69.42;99021.03;5116686;28;20031;-64
2023/11/09 05:11:32;;;;;;;16.90;6.80;;;;;;;8.15;69.17;99017.13;5116340;27;20027;-64
2023/11/09 05:13:58;;;;;;;17.63;7.25;;;;;;;8.15;69.14;99005.66;5117320;27;20035;-65
2023/11/09 05:16:24;;;;;;;19.05;7.18;;;;;;;8.23;68.72;99013.00;5119652;27;20023;-64
2023/11/09 05:18:49;;;;;;;19.98;7.25;;;;;;;8.23;69.00;99018.34;5116486;28;20020;-67
2023/11/09 05:21:15;;;;;;;21.30;8.20;;;;;;;8.26;68.75;99024.25;5115972;28;20450;-66
2023/11/09 05:23:40;;;;;;;16.73;7.82;;;;;;;8.25;68.63;99014.56;5115979;28;20055;-66
2023/11/09 05:26:06;;;;;;;14.88;7.90;;;;;;;8.28;68.80;99008.97;5115229;28;20024;-66
2023/11/09 05:28:32;;;;;;;18.42;7.68;;;;;;;8.36;68.43;99021.66;5116033;28;20853;-67
2023/11/09 05:30:57;;;;;;;16.67;7.25;;;;;;;8.39;68.65;99009.88;5116623;27;20039;-66
2023/11/09 05:33:23;;;;;;;19.38;8.02;;;;;;;8.44;68.50;99021.88;5115521;28;20031;-66
2023/11/09 05:35:49;;;;;;;15.73;7.82;;;;;;;8.48;68.35;99023.28;5115822;27;21716;-65
2023/11/09 05:38:15;;;;;;;22.75;8.63;;;;;;;8.55;68.36;99020.13;5114440;28;20150;-65
2023/11/09 05:40:43;;;;;;;19.08;7.95;;;;;;;8.63;68.03;99020.31;5117169;27;20049;-65
2023/11/09 05:43:11;;;;;;;18.88;8.63;;;;;;;8.59;67.87;99000.22;5115880;28;20031;-66
2023/11/09 05:45:37;;;;;;;22.10;8.57;;;;;;;8.68;67.87;99028.78;5115725;28;20031;-65
2023/11/09 05:48:03;;;;;;;18.88;8.20;;;;;;;8.69;67.64;99022.47;5097305;28;20039;-66
2023/11/09 05:50:30;;;;;;;20.95;7.93;;;;;;;8.72;67.60;99027.53;5114803;28;20035;-64
2023/11/09 05:52:56;;;;;;;20.40;8.02;;;;;;;8.64;67.63;99013.16;5115560;28;20031;-66
2023/11/09 05:55:22;;;;;;;18.30;8.15;;;;;;;8.71;67.58;99022.31;5121967;27;20031;-67
2023/11/09 05:57:47;;;;;;;17.60;8.43;;;;;;;8.69;67.29;99013.59;5133747;27;20023;-65
2023/11/09 06:00:14;;;;;;;19.00;8.13;;;;;;;8.72;67.50;99019.53;5136013;27;20129;-67
2023/11/09 06:02:39;;;;;;;21.00;8.57;;;;;;;8.71;67.42;99011.66;5135949;27;20051;-67
2023/11/09 06:05:05;;;;;;;15.27;8.55;;;;;;;8.76;67.60;99018.28;5135412;27;20436;-66
2023/11/09 06:07:31;;;;;;;17.63;8.48;;;;;;;8.78;67.49;99015.47;5135651;27;20108;-66
2023/11/09 06:09:56;;;;;;;20.85;8.32;;;;;;;8.61;67.37;98982.25;5135772;27;20067;-68
2023/11/09 06:12:24;;;;;;;18.55;7.45;;;;;;;8.90;66.90;99018.91;5135007;27;20075;-67
2023/11/09 06:14:49;;;;;;;19.70;7.72;;;;;;;8.97;67.01;99025.41;5132864;27;20027;-67
2023/11/09 06:17:15;;;;;;;19.80;8.25;;;;;;;9.02;66.80;99025.84;5135890;27;20038;-69
2023/11/09 06:19:42;;;;;;;21.67;8.10;;;;;;;9.09;66.41;99018.16;5132907;27;20019;-67
2023/11/09 06:22:09;;;;;;;21.58;8.07;;;;;;;9.17;66.55;99020.16;5135374;27;20023;-67
2023/11/09 06:24:37;;;;;;;19.02;8.35;;;;;;;9.19;66.28;99024.38;5135621;27;20039;-66
2023/11/09 06:27:03;;;;;;;25.30;9.25;;;;;;;9.24;66.05;99025.78;5135150;27;20377;-66
2023/11/09 06:29:29;;;;;;;24.40;8.05;;;;;;;9.18;66.21;99006.66;5135058;27;20074;-67
2023/11/09 06:31:55;;;;;;;24.63;8.73;;;;;;;9.27;66.18;99021.03;5135274;27;20121;-67
2023/11/09 06:34:20;;;;;;;23.50;8.15;;;;;;;9.12;65.89;98980.50;5119436;27;20027;-66
2023/11/09 06:36:46;;;;;;;26.73;8.82;;;;;;;9.38;65.87;99005.88;5115269;28;20067;-69
2023/11/09 06:39:16;;;;;;;30.70;10.02;;;;;;;9.50;65.42;99022.63;5115039;28;20106;-67
2023/11/09 06:41:47;;;;;;;32.85;10.38;;;;;;;9.61;65.42;99025.22;5114748;27;20517;-68
2023/11/09 06:44:17;;;;;;;26.90;10.55;;;;;;;9.60;65.13;99011.00;5115102;27;20439;-67
2023/11/09 06:46:44;;;;;;;28.50;10.07;;;;;;;9.56;64.96;98990.88;5118411;27;20023;-67
2023/11/09 06:49:13;;;;;;;26.33;9.80;;;;;;;9.85;64.76;99019.47;5128957;27;20108;-67
2023/11/09 06:51:39;;;;;;;30.00;9.32;;;;;;;9.90;64.14;99011.03;5114551;28;20088;-66
2023/11/09 06:54:05;;;;;;;19.92;8.43;;;;;;;10.00;63.77;99021.72;5114719;28;20028;-65
2023/11/09 06:56:32;;;;;;;23.00;9.10;;;;;;;10.01;63.72;99013.59;5134045;27;20027;-66
2023/11/09 06:59:00;;;;;;;26.20;8.98;;;;;;;10.09;63.50;99020.88;5134926;27;20414;-67
2023/11/09 07:01:26;;;;;;;17.40;8.77;;;;;;;9.90;63.43;98977.13;5134922;27;20027;-68
2023/11/09 07:03:52;;;;;;;23.77;9.15;;;;;;;10.23;63.41;99018.78;5123913;27;20460;-68
2023/11/09 07:06:22;;;;;;;20.65;8.98;;;;;;;10.20;62.95;98987.78;5112391;28;20153;-69
2023/11/09 07:08:49;;;;;;;26.10;9.50;;;;;;;10.44;62.34;99014.16;5113439;28;20042;-68
2023/11/09 07:11:16;;;;;;;19.77;9.57;;;;;;;10.23;62.38;98970.63;5109850;27;20059;-65
2023/11/09 07:13:42;;;;;;;17.88;9.93;;;;;;;10.58;61.82;99012.00;5110885;27;20034;-65
2023/11/09 07:16:08;;;;;;;19.95;8.98;;;;;;;10.52;61.83;98985.81;5123659;27;20035;-65
2023/11/09 07:18:35;;;;;;;17.17;9.30;;;;;;;10.73;61.28;98999.84;5112105;28;20090;-66
2023/11/09 07:21:02;;;;;;;22.35;9.30;;;;;;;10.95;60.80;99007.66;5095831;28;20133;-66
2023/11/09 07:23:28;;;;;;;19.65;8.90;;;;;;;11.06;60.53;99007.50;5113679;28;20055;-65
2023/11/09 07:25:54;;;;;;;19.10;9.20;;;;;;;11.24;60.11;99014.75;5116067;27;20110;-66
2023/11/09 07:28:20;;;;;;;25.33;9.57;;;;;;;11.37;59.86;99012.56;5112190;28;20212;-66
2023/11/09 07:30:48;;;;;;;21.33;9.82;;;;;;;11.47;59.57;99007.16;5113130;28;20043;-67
2023/11/09 07:33:15;;;;;;;23.67;9.65;;;;;;;11.55;59.30;99004.56;5113305;27;20034;-65
2023/11/09 07:35:47;;;;;;;25.42;9.18;;;;;;;11.66;58.83;99000.81;5112583;28;20039;-66
2023/11/09 07:38:13;;;;;;;21.85;10.00;;;;;;;11.57;58.53;99013.28;5111524;28;20362;-70
2023/11/09 07:40:44;;;;;;;23.50;10.27;;;;;;;11.59;59.14;99011.31;5113354;28;20027;-68
2023/11/09 07:43:10;;;;;;;29.17;9.75;;;;;;;11.58;58.66;99009.63;5113169;28;20058;-70
2023/11/09 07:45:37;;;;;;;22.88;10.57;;;;;;;11.62;58.72;99002.97;5112887;28;20023;-67
2023/11/09 07:48:06;;;;;;;20.00;9.02;;;;;;;11.54;58.76;99000.19;5116083;27;20030;-67
2023/11/09 07:50:35;;;;;;;22.83;8.82;;;;;;;11.46;59.04;99008.16;5117566;27;20028;-70
2023/11/09 07:53:01;;;;;;;15.65;8.68;;;;;;;11.28;59.44;99006.25;5122874;27;20035;-67
2023/11/09 07:55:30;;;;;;;18.05;9.30;;;;;;;11.19;60.16;99015.19;5131794;27;20367;-69
2023/11/09 07:57:58;;;;;;;24.23;10.35;;;;;;;11.09;59.66;99017.06;5115299;27;20032;-68
2023/11/09 08:00:24;;;;;;;21.25;11.57;;;;;;;11.01;60.10;99010.59;5112692;28;20560;-67
2023/11/09 08:02:50;;;;;;;29.80;11.38;;;;;;;11.01;60.21;99015.97;5113390;28;20041;-70
2023/11/09 08:05:16;;;;;;;28.42;12.95;;;;;;;10.94;60.36;99006.84;5112561;28;20028;-69
2023/11/09 08:07:42;;;;;;;32.42;12.65;;;;;;;10.86;60.21;99022.81;5116926;27;20337;-69
2023/11/09 08:10:09;;;;;;;24.48;12.68;;;;;;;10.85;61.12;99018.41;5131470;27;20089;-68
2023/11/09 08:12:37;;;;;;;27.00;14.40;;;;;;;10.75;61.12;99021.13;5121238;27;20024;-68
2023/11/09 08:15:10;;;;;;;32.85;13.90;;;;;;;10.58;61.45;99012.84;5111775;28;20434;-67
2023/11/09 08:17:41;;;;;;;29.73;14.32;;;;;;;10.55;61.51;99026.53;5092237;28;20032;-69
2023/11/09 08:20:13;;;;;;;38.10;14.98;;;;;;;10.50;61.91;99022.59;5092113;28;20111;-70
2023/11/09 08:22:44;;;;;;;23.55;14.40;;;;;;;10.58;62.00;99015.53;5112809;28;20095;-69
2023/11/09 08:25:12;;;;;;;35.85;16.60;;;;;;;10.73;62.17;99015.91;5112134;28;20109;-70
2023/11/09 08:27:42;;;;;;;36.75;15.82;;;;;;;10.81;61.29;99025.03;5111698;28;20482;-69
2023/11/09 08:30:12;;;;;;;44.50;17.73;;;;;;;10.82;60.97;99006.16;5112645;28;20035;-70
2023/11/09 08:32:38;;;;;;;31.88;18.80;;;;;;;10.85;60.94;99018.41;5111214;28;20062;-71
2023/11/09 08:35:10;;;;;;;32.58;20.08;;;;;;;10.85;60.78;99010.38;5112495;28;20399;-68
2023/11/09 08:37:40;;;;;;;39.08;19.65;;;;;;;10.89;61.08;99011.78;5113035;28;20040;-68
2023/11/09 08:40:16;;;;;;;40.40;21.45;;;;;;;10.92;60.72;99016.84;5135305;27;20031;-68
2023/11/09 08:42:46;;;;;;;40.88;20.92;;;;;;;11.00;60.64;99014.28;5137061;27;20027;-69
2023/11/09 08:45:12;;;;;;;44.53;21.27;;;;;;;10.99;60.47;99017.94;5102389;27;20893;-69
2023/11/09 08:47:38;;;;;;;36.47;20.33;;;;;;;10.96;60.67;99017.38;5130168;27;20027;-67
2023/11/09 08:50:05;;;;;;;38.55;19.00;;;;;;;10.94;60.76;99008.66;5124303;27;20045;-69
2023/11/09 08:52:32;;;;;;;33.75;17.50;;;;;;;10.94;60.54;99014.88;5115778;27;20100;-68
2023/11/09 08:54:58;;;;;;;32.95;17.15;;;;;;;10.73;60.46;98983.78;5130659;27;20027;-72
2023/11/09 08:57:23;;;;;;;47.83;18.50;;;;;;;10.96;60.56;99017.38;5126609;27;20035;-70
2023/11/09 08:59:50;;;;;;;34.28;18.20;;;;;;;10.94;60.27;99024.72;5096936;28;20056;-70
2023/11/09 09:02:17;;;;;;;33.60;17.52;;;;;;;10.94;60.44;99022.03;5113385;28;20031;-70
2023/11/09 09:04:44;;;;;;;36.65;17.52;;;;;;;10.98;60.52;99010.91;5117981;27;20020;-71
2023/11/09 09:07:10;;;;;;;33.25;16.80;;;;;;;11.01;60.43;99018.66;5112100;28;20028;-70
2023/11/09 09:09:37;;;;;;;24.60;15.02;;;;;;;10.87;60.30;99013.78;5114958;28;20034;-71
2023/11/09 09:12:04;;;;;;;26.23;14.02;;;;;;;10.62;60.75;98990.16;5128234;27;20426;-70
2023/11/09 09:14:30;;;;;;;26.17;14.07;;;;;;;10.82;60.66;99029.41;5114508;27;20453;-70
2023/11/09 09:16:56;;;;;;;18.77;11.77;;;;;;;10.54;60.78;98989.19;5136473;27;20023;-68
2023/11/09 09:19:24;;;;;;;23.20;11.68;;;;;;;10.81;61.07;99022.38;5117647;27;20102;-72
2023/11/09 09:21:49;;;;;;;19.77;11.40;;;;;;;10.84;60.56;99020.25;5120799;27;20023;-71
2023/11/09 09:24:16;;;;;;;19.17;10.98;;;;;;;10.86;60.40;99023.63;5135211;27;20038;-66
2023/11/09 09:26:42;;;;;;;15.55;11.02;;;;;;;10.79;60.45;99010.97;5135948;27;20868;-67
2023/11/09 09:29:09;;;;;;;17.42;11.25;;;;;;;10.89;60.33;99022.50;5096787;28;20051;-70
2023/11/09 09:31:35;;;;;;;21.52;11.63;;;;;;;10.89;60.23;99020.66;5105459;28;20134;-70
2023/11/09 09:34:07;;;;;;;24.38;10.95;;;;;;;10.94;60.50;99014.00;5103508;28;20089;-71
2023/11/09 09:36:41;;;;;;;24.00;11.07;;;;;;;10.99;60.32;99023.31;5113540;27;20028;-69
2023/11/09 09:39:08;;;;;;;18.40;10.98;;;;;;;10.72;60.19;98987.44;5096668;28;20040;-69
2023/11/09 09:41:41;;;;;;;14.27;10.55;;;;;;;10.98;60.17;99031.50;5124939;27;20119;-68
2023/11/09 09:44:12;;;;;;;15.10;10.40;;;;;;;10.95;59.93;99021.91;5135856;27;20039;-69
2023/11/09 09:46:39;;;;;;;19.55;9.95;;;;;;;10.95;60.10;99018.38;5134484;27;20027;-70
2023/11/09 09:49:13;;;;;;;15.93;9.63;;;;;;;10.93;60.32;99021.22;5119106;27;20050;-68
2023/11/09 09:51:39;;;;;;;16.60;10.02;;;;;;;10.94;60.16;99030.09;5117403;27;20446;-69
2023/11/09 09:54:09;;;;;;;15.23;9.43;;;;;;;10.95;60.07;99023.72;5114844;28;20035;-67
2023/11/09 09:56:39;;;;;;;16.00;9.63;;;;;;;11.00;59.76;99022.31;5114431;28;20027;-68
2023/11/09 09:59:09;;;;;;;15.85;8.82;;;;;;;10.98;59.59;99028.81;5126071;27;20126;-70
2023/11/09 10:01:40;;;;;;;11.85;8.75;;;;;;;10.97;59.33;99030.66;5125717;27;20402;-71
2023/11/09 10:04:06;;;;;;;21.83;9.65;;;;;;;10.95;59.16;99037.13;5114319;28;20077;-71
2023/11/09 10:06:32;;;;;;;16.88;9.23;;;;;;;10.94;59.07;99030.94;5110591;28;20032;-73
2023/11/09 10:09:05;;;;;;;19.50;10.45;;;;;;;10.93;59.47;99033.75;5094158;28;20454;-68
2023/11/09 10:11:32;;;;;;;22.67;9.27;;;;;;;10.96;59.27;99028.09;5094123;28;20027;-68
2023/11/09 10:13:59;;;;;;;18.63;9.65;;;;;;;10.98;59.30;99032.34;5099453;27;20378;-69
2023/11/09 10:16:32;;;;;;;12.73;9.13;;;;;;;11.06;59.24;99034.28;5134356;27;20113;-68
2023/11/09 10:19:02;;;;;;;17.90;10.20;;;;;;;10.77;59.03;98998.56;5130253;27;20042;-66
2023/11/09 10:21:30;;;;;;;27.63;11.35;;;;;;;10.85;59.24;99024.63;5114249;28;20450;-68
2023/11/09 10:24:00;;;;;;;21.92;11.25;;;;;;;10.80;59.48;99018.00;5118089;27;20478;-67
2023/11/09 10:26:40;;;;;;;21.90;11.40;;;;;;;10.97;59.58;99036.00;5114570;28;20031;-66
2023/11/09 10:29:11;;;;;;;17.42;9.98;;;;;;;10.94;59.60;99027.41;5118062;27;20047;-67
2023/11/09 10:31:38;;;;;;;15.73;10.30;;;;;;;10.89;58.96;99022.50;5134920;27;20027;-65
2023/11/09 10:34:04;;;;;;;13.93;8.68;;;;;;;10.84;59.28;99019.41;5130995;27;20875;-67
2023/11/09 10:36:30;;;;;;;19.70;9.82;;;;;;;10.82;59.49;99022.25;5114142;28;20053;-68
2023/11/09 10:38:55;;;;;;;11.15;8.02;;;;;;;10.81;59.24;99025.03;5118593;27;20115;-66
2023/11/09 10:41:23;;;;;;;18.52;9.07;;;;;;;10.81;59.12;99020.56;5131436;27;20106;-67
2023/11/09 10:43:50;;;;;;;15.32;9.25;;;;;;;10.67;58.91;99004.94;5129919;27;20023;-67
2023/11/09 10:46:18;;;;;;;18.70;9.10;;;;;;;10.73;59.71;99015.91;5114026;28;20107;-66
2023/11/09 10:48:48;;;;;;;21.08;9.70;;;;;;;10.73;59.63;99023.94;5114205;27;20027;-65
2023/11/09 10:51:14;;;;;;;15.38;9.77;;;;;;;10.73;59.38;99023.94;5093377;28;20093;-66
2023/11/09 10:53:43;;;;;;;17.33;8.73;;;;;;;10.73;59.64;99023.94;5092479;28;20066;-67
2023/11/09 10:56:13;;;;;;;14.70;8.45;;;;;;;10.72;59.68;99027.63;5093803;28;20036;-66
2023/11/09 10:58:44;;;;;;;15.13;8.48;;;;;;;10.69;59.89;99032.41;5130979;27;20031;-67
2023/11/09 11:01:20;;;;;;;10.27;6.85;;;;;;;10.70;59.37;99029.59;5134257;27;20441;-66
2023/11/09 11:03:51;;;;;;;11.82;6.82;;;;;;;10.69;58.98;99029.72;5131547;27;20031;-66
2023/11/09 11:06:25;;;;;;;10.07;6.15;;;;;;;10.69;59.17;99040.44;5114224;28;20038;-68
2023/11/09 11:08:56;;;;;;;7.38;5.60;;;;;;;10.56;58.90;99017.50;5103893;28;20036;-69
2023/11/09 11:11:24;;;;;;;9.63;5.65;;;;;;;10.65;58.71;99042.56;5110623;27;20465;-68
2023/11/09 11:14:02;;;;;;;9.02;6.00;;;;;;;10.66;58.80;99043.41;5129525;27;20050;-68
2023/11/09 11:16:53;;;;;;;10.35;5.90;;;;;;;10.71;59.31;99041.13;5114846;27;20114;-67
2023/11/09 11:19:33;;;;;;;12.10;6.18;;;;;;;10.71;59.02;99039.31;5112715;28;20046;-68
2023/11/09 11:22:41;;;;;;;11.38;6.35;;;;;;;10.76;59.11;99047.75;5113009;28;20153;-67
2023/11/09 11:25:35;;;;;;;;;;;;;;;10.95;59.19;99043.34;5069322;28;20368;-68
2023/11/09 11:28:02;;;;;;;11.10;6.65;;;;;;;10.62;58.77;99050.91;5069021;28;19927;-68
2023/11/09 11:30:29;;;;;;;11.63;6.75;;;;;;;10.42;59.92;99052.72;5069133;28;20430;-67
2023/11/09 11:32:59;;;;;;;11.18;6.88;;;;;;;10.34;60.17;99056.94;5057563;28;20114;-67
2023/11/09 11:35:39;;;;;;;11.75;7.40;;;;;;;10.33;60.72;99049.91;5062733;28;20696;-67
2023/11/09 11:38:16;;;;;;;13.77;7.95;;;;;;;10.29;61.05;99058.34;5064234;28;20025;-68
2023/11/09 11:40:46;;;;;;;12.68;8.00;;;;;;;10.21;61.12;99045.66;5065035;28;20941;-67
2023/11/09 11:43:13;;;;;;;13.52;7.70;;;;;;;10.19;61.08;99051.16;5068951;28;20035;-67